Time;durP1;ratioP1;P1;durP2;ratioP2;P2;SDS_P1;SDS_P2;PMS_P1;PMS_P2;Temp;Humidity;BMP_temperature;BMP_pressure;BME280_temperature;BME280_humidity;BME280_pressure;Samples;Min_cycle;Max_cycle;Signal;HPM_P1;HPM_P2
2022/06/13 00:00:36;;;;;;;23.57;21.97;;;;;;;;;;5013402;28;20782;-80
2022/06/13 00:03:04;;;;;;;23.00;21.50;;;;;;;;;;4995482;28;20426;-79
2022/06/13 00:05:33;;;;;;;23.10;21.60;;;;;;;;;;5013147;28;20419;-79
2022/06/13 00:08:00;;;;;;;22.53;21.33;;;;;;;;;;5013252;28;20411;-79
2022/06/13 00:10:27;;;;;;;23.63;21.70;;;;;;;;;;5013369;28;20416;-79
2022/06/13 00:12:55;;;;;;;22.87;21.23;;;;;;;;;;5013035;28;20449;-79
2022/06/13 00:15:22;;;;;;;22.47;21.07;;;;;;;;;;5013127;28;20803;-79
2022/06/13 00:17:49;;;;;;;22.37;20.93;;;;;;;;;;5012884;28;20493;-79
2022/06/13 00:20:17;;;;;;;23.13;21.40;;;;;;;;;;5013222;28;20440;-79
2022/06/13 00:22:46;;;;;;;23.33;21.93;;;;;;;;;;5013271;28;20416;-80
2022/06/13 00:25:13;;;;;;;22.83;21.40;;;;;;;;;;5012855;28;20424;-79
2022/06/13 00:27:41;;;;;;;24.50;22.90;;;;;;;;;;5013301;28;20420;-80
2022/06/13 00:30:09;;;;;;;22.97;21.43;;;;;;;;;;5012994;28;20415;-79
2022/06/13 00:32:36;;;;;;;23.60;22.20;;;;;;;;;;5013059;28;20477;-79
2022/06/13 00:35:04;;;;;;;23.37;21.97;;;;;;;;;;5013120;28;20427;-79
2022/06/13 00:37:32;;;;;;;25.00;22.93;;;;;;;;;;5013073;28;20491;-79
2022/06/13 00:40:00;;;;;;;24.97;22.97;;;;;;;;;;5032473;28;20410;-79
2022/06/13 00:42:28;;;;;;;23.23;21.87;;;;;;;;;;5032369;28;20447;-79
2022/06/13 00:45:11;;;;;;;23.17;21.67;;;;;;;;;;5032387;28;20490;-79
2022/06/13 00:47:39;;;;;;;23.73;22.23;;;;;;;;;;5032382;28;20933;-79
2022/06/13 00:50:08;;;;;;;23.53;22.00;;;;;;;;;;5032669;28;20418;-79
2022/06/13 00:52:41;;;;;;;23.33;21.73;;;;;;;;;;5032362;28;20468;-79
2022/06/13 00:55:12;;;;;;;23.07;21.77;;;;;;;;;;5032345;28;20904;-79
2022/06/13 00:57:39;;;;;;;24.00;22.30;;;;;;;;;;5032560;28;20476;-78
2022/06/13 01:00:08;;;;;;;24.10;22.50;;;;;;;;;;5032305;28;20436;-78
2022/06/13 01:02:36;;;;;;;23.20;21.80;;;;;;;;;;5032513;28;20448;-80
2022/06/13 01:05:03;;;;;;;23.17;21.67;;;;;;;;;;5032340;28;20440;-79
2022/06/13 01:07:31;;;;;;;24.07;22.40;;;;;;;;;;5032228;28;20476;-79
2022/06/13 01:12:44;;;;;;;24.17;22.50;;;;;;;;;;5032255;28;20841;-79
2022/06/13 01:15:18;;;;;;;23.33;21.63;;;;;;;;;;5032446;28;20448;-80
2022/06/13 01:17:51;;;;;;;24.00;22.17;;;;;;;;;;5032426;28;20454;-80
2022/06/13 01:20:32;;;;;;;23.90;22.10;;;;;;;;;;5032394;28;20436;-80
2022/06/13 01:23:15;;;;;;;22.30;20.70;;;;;;;;;;5032340;28;20908;-80
2022/06/13 01:26:04;;;;;;;22.90;21.40;;;;;;;;;;5028937;28;20452;-80
2022/06/13 01:28:58;;;;;;;23.37;21.77;;;;;;;;;;5032114;28;20820;-80
2022/06/13 01:31:29;;;;;;;24.57;22.60;;;;;;;;;;4951827;29;20426;-80
2022/06/13 01:34:01;;;;;;;23.67;22.00;;;;;;;;;;4951774;29;20480;-80
2022/06/13 01:36:34;;;;;;;23.57;22.17;;;;;;;;;;4951722;29;20902;-79
2022/06/13 01:39:11;;;;;;;24.17;22.50;;;;;;;;;;4951594;29;20514;-79
2022/06/13 01:41:42;;;;;;;23.43;22.00;;;;;;;;;;4952610;28;20971;-80
2022/06/13 01:44:12;;;;;;;23.87;22.00;;;;;;;;;;4955197;29;20432;-80
2022/06/13 01:46:43;;;;;;;24.57;22.73;;;;;;;;;;4955132;28;20506;-80
2022/06/13 01:49:19;;;;;;;23.77;22.37;;;;;;;;;;4955178;29;20455;-79
2022/06/13 01:51:51;;;;;;;23.67;22.03;;;;;;;;;;4955138;29;20975;-80
2022/06/13 01:54:22;;;;;;;25.17;23.23;;;;;;;;;;4955008;29;20430;-79
2022/06/13 01:56:53;;;;;;;24.37;22.73;;;;;;;;;;4955037;29;20483;-80
2022/06/13 01:59:23;;;;;;;23.10;21.80;;;;;;;;;;4954978;29;20469;-80
2022/06/13 02:01:54;;;;;;;24.17;22.40;;;;;;;;;;4923114;29;20942;-80
2022/06/13 02:04:23;;;;;;;24.43;22.67;;;;;;;;;;4954858;29;20417;-79
2022/06/13 02:06:52;;;;;;;21.70;20.47;;;;;;;;;;4982854;28;20940;-80
2022/06/13 02:09:22;;;;;;;21.97;20.77;;;;;;;;;;5017357;28;20828;-80
2022/06/13 02:11:51;;;;;;;23.43;22.00;;;;;;;;;;5035249;28;20415;-81
2022/06/13 02:14:22;;;;;;;22.80;21.50;;;;;;;;;;5034954;28;20811;-80
2022/06/13 02:16:51;;;;;;;23.43;21.83;;;;;;;;;;5035176;28;20911;-79
2022/06/13 02:19:23;;;;;;;23.03;21.50;;;;;;;;;;5035028;28;20612;-79
2022/06/13 02:21:52;;;;;;;24.73;22.87;;;;;;;;;;5034845;28;20798;-79
2022/06/13 02:24:23;;;;;;;24.20;22.60;;;;;;;;;;5034670;28;20441;-79
2022/06/13 02:26:51;;;;;;;23.47;21.87;;;;;;;;;;5016926;28;20426;-80
2022/06/13 02:29:21;;;;;;;23.73;22.20;;;;;;;;;;5035273;28;20407;-80
2022/06/13 02:31:50;;;;;;;22.90;21.50;;;;;;;;;;5034973;28;20433;-80
2022/06/13 02:34:19;;;;;;;23.30;21.90;;;;;;;;;;5034613;28;20440;-80
2022/06/13 02:36:51;;;;;;;22.63;21.13;;;;;;;;;;5034700;28;20445;-80
2022/06/13 02:39:22;;;;;;;24.27;22.67;;;;;;;;;;5034329;28;20503;-79
2022/06/13 02:41:51;;;;;;;22.93;21.53;;;;;;;;;;5034411;28;20498;-80
2022/06/13 02:44:22;;;;;;;22.70;21.30;;;;;;;;;;5034444;28;20436;-80
2022/06/13 02:46:52;;;;;;;22.77;21.47;;;;;;;;;;5034516;28;20852;-79
2022/06/13 02:49:21;;;;;;;24.13;22.43;;;;;;;;;;5034619;28;20451;-79
2022/06/13 02:51:54;;;;;;;23.23;21.77;;;;;;;;;;5034188;28;20473;-80
2022/06/13 02:54:23;;;;;;;23.67;21.97;;;;;;;;;;5033451;28;20437;-80
2022/06/13 02:59:45;;;;;;;23.50;22.13;;;;;;;;;;5034083;28;20483;-80
2022/06/13 03:02:15;;;;;;;22.57;21.07;;;;;;;;;;5033958;28;20467;-80
2022/06/13 03:04:44;;;;;;;23.07;21.30;;;;;;;;;;5034341;28;20444;-80
2022/06/13 03:07:16;;;;;;;22.70;21.30;;;;;;;;;;5033799;28;20448;-80
2022/06/13 03:09:48;;;;;;;23.77;21.77;;;;;;;;;;5034002;28;20453;-79
2022/06/13 03:12:18;;;;;;;23.30;21.90;;;;;;;;;;5033778;28;20422;-80
2022/06/13 03:14:48;;;;;;;24.13;22.50;;;;;;;;;;5034064;28;20411;-80
2022/06/13 03:17:29;;;;;;;24.13;22.40;;;;;;;;;;5033701;28;20491;-80
2022/06/13 03:19:58;;;;;;;24.80;22.47;;;;;;;;;;5033613;28;21099;-79
2022/06/13 03:22:32;;;;;;;23.47;21.67;;;;;;;;;;5033537;28;20884;-80
2022/06/13 03:25:03;;;;;;;22.93;21.63;;;;;;;;;;5033465;28;20422;-79
2022/06/13 03:27:33;;;;;;;22.63;21.43;;;;;;;;;;5033869;28;20502;-80
2022/06/13 03:30:03;;;;;;;22.40;21.10;;;;;;;;;;5033394;28;20799;-80
2022/06/13 03:32:33;;;;;;;22.83;21.50;;;;;;;;;;5033626;28;20446;-80
2022/06/13 03:35:03;;;;;;;22.80;21.40;;;;;;;;;;5033733;28;20430;-80
2022/06/13 03:37:34;;;;;;;23.50;21.80;;;;;;;;;;5015360;28;20474;-80
2022/06/13 03:40:04;;;;;;;22.47;20.83;;;;;;;;;;5033321;28;21002;-80
2022/06/13 03:42:34;;;;;;;23.33;21.73;;;;;;;;;;5033245;28;20411;-81
2022/06/13 03:45:03;;;;;;;22.40;21.03;;;;;;;;;;5033541;28;20435;-80
2022/06/13 03:47:32;;;;;;;24.03;22.27;;;;;;;;;;5033206;28;20468;-80
2022/06/13 03:50:01;;;;;;;23.57;22.13;;;;;;;;;;5033448;28;20414;-80
2022/06/13 03:52:31;;;;;;;23.50;22.00;;;;;;;;;;5033395;28;20445;-79
2022/06/13 03:55:02;;;;;;;24.40;22.50;;;;;;;;;;5033000;28;20414;-80
2022/06/13 03:57:32;;;;;;;23.47;21.80;;;;;;;;;;5032981;28;20933;-80
2022/06/13 04:00:02;;;;;;;23.30;21.60;;;;;;;;;;5033166;28;20529;-80
2022/06/13 04:02:31;;;;;;;22.83;21.43;;;;;;;;;;5033082;28;20448;-80
2022/06/13 04:04:59;;;;;;;23.47;21.97;;;;;;;;;;5032788;28;20959;-80
2022/06/13 04:07:27;;;;;;;24.40;22.70;;;;;;;;;;5033129;28;20483;-81
2022/06/13 04:09:55;;;;;;;23.80;22.30;;;;;;;;;;5033142;28;20817;-80
2022/06/13 04:12:31;;;;;;;25.13;23.43;;;;;;;;;;5032858;28;20418;-80
2022/06/13 04:15:13;;;;;;;25.03;23.30;;;;;;;;;;5033041;28;20446;-80
2022/06/13 04:17:45;;;;;;;26.43;24.37;;;;;;;;;;5030043;28;20464;-80
2022/06/13 04:20:16;;;;;;;26.53;24.33;;;;;;;;;;5032687;28;20915;-80
2022/06/13 04:22:49;;;;;;;24.77;23.13;;;;;;;;;;5032809;28;20443;-81
2022/06/13 04:25:22;;;;;;;24.40;22.80;;;;;;;;;;5032700;28;20786;-80
2022/06/13 04:27:55;;;;;;;24.57;22.90;;;;;;;;;;5030756;28;20471;-76
2022/06/13 04:30:26;;;;;;;24.93;23.17;;;;;;;;;;5032530;28;20959;-75
2022/06/13 04:32:57;;;;;;;23.30;21.80;;;;;;;;;;5032711;28;20446;-85
2022/06/13 04:35:25;;;;;;;24.23;22.50;;;;;;;;;;5033932;28;20415;-84
2022/06/13 04:37:53;;;;;;;24.10;22.40;;;;;;;;;;5033227;28;20484;-79
2022/06/13 04:40:23;;;;;;;26.10;23.90;;;;;;;;;;5032270;28;20484;-73
2022/06/13 04:42:54;;;;;;;24.13;22.53;;;;;;;;;;5032319;28;20790;-74
2022/06/13 04:45:23;;;;;;;24.60;22.90;;;;;;;;;;5032048;28;20415;-75
2022/06/13 04:47:52;;;;;;;24.63;22.83;;;;;;;;;;5032675;28;20517;-77
2022/06/13 04:50:21;;;;;;;24.63;23.03;;;;;;;;;;5032080;28;20436;-75
2022/06/13 04:52:50;;;;;;;24.20;22.60;;;;;;;;;;5032671;28;20444;-77
2022/06/13 04:55:20;;;;;;;25.00;22.90;;;;;;;;;;5032711;28;20440;-76
2022/06/13 04:57:47;;;;;;;24.50;22.60;;;;;;;;;;5032793;28;20444;-78
2022/06/13 05:00:17;;;;;;;23.37;21.57;;;;;;;;;;5032586;28;20508;-78
2022/06/13 05:02:45;;;;;;;25.67;23.77;;;;;;;;;;5032515;28;20790;-78
2022/06/13 05:05:25;;;;;;;25.10;23.43;;;;;;;;;;5032532;28;20921;-77
2022/06/13 05:07:53;;;;;;;23.77;21.87;;;;;;;;;;5033615;28;20881;-90
2022/06/13 05:10:23;;;;;;;23.30;21.43;;;;;;;;;;5034245;28;20444;-90
2022/06/13 05:12:50;;;;;;;22.33;20.83;;;;;;;;;;5033734;28;20437;-89
2022/06/13 05:15:21;;;;;;;24.53;22.57;;;;;;;;;;5033891;28;20482;-90
2022/06/13 05:18:16;;;;;;;22.10;20.80;;;;;;;;;;5036284;28;20433;-89
2022/06/13 05:20:48;;;;;;;25.03;22.90;;;;;;;;;;4957367;29;21068;-89
2022/06/13 05:23:23;;;;;;;24.10;22.47;;;;;;;;;;4957394;28;20508;-89
2022/06/13 05:25:53;;;;;;;23.77;22.20;;;;;;;;;;4957355;29;20937;-89
2022/06/13 05:28:21;;;;;;;23.07;21.47;;;;;;;;;;4957300;29;20798;-89
2022/06/13 05:30:52;;;;;;;24.77;22.63;;;;;;;;;;4957527;29;20468;-89
2022/06/13 05:33:20;;;;;;;24.60;22.80;;;;;;;;;;4957261;29;20460;-90
2022/06/13 05:35:52;;;;;;;23.50;21.83;;;;;;;;;;4957200;29;20439;-89
2022/06/13 05:38:21;;;;;;;21.80;20.50;;;;;;;;;;4957043;29;20567;-92
2022/06/13 05:40:48;;;;;;;24.10;22.03;;;;;;;;;;4957290;29;21008;-89
2022/06/13 05:43:16;;;;;;;22.43;21.13;;;;;;;;;;4957216;29;20857;-90
2022/06/13 05:45:44;;;;;;;23.63;22.13;;;;;;;;;;4957225;29;20900;-91
2022/06/13 05:48:14;;;;;;;23.00;21.30;;;;;;;;;;4956839;29;20433;-91
2022/06/13 05:50:42;;;;;;;22.90;21.50;;;;;;;;;;4957065;29;20430;-91
2022/06/13 05:53:12;;;;;;;22.33;20.83;;;;;;;;;;4940843;29;20444;-80
2022/06/13 05:55:40;;;;;;;21.83;20.53;;;;;;;;;;4954413;28;20443;-90
2022/06/13 05:58:08;;;;;;;23.10;21.60;;;;;;;;;;5036670;28;20943;-89
2022/06/13 06:00:37;;;;;;;22.53;21.03;;;;;;;;;;5036878;28;20483;-89
2022/06/13 06:03:04;;;;;;;23.27;21.57;;;;;;;;;;5036530;28;20477;-73
2022/06/13 06:05:33;;;;;;;23.30;21.90;;;;;;;;;;5035573;28;20445;-81
2022/06/13 06:08:01;;;;;;;21.80;20.40;;;;;;;;;;5035296;28;20436;-83
2022/06/13 06:10:30;;;;;;;22.33;20.93;;;;;;;;;;5035603;28;20460;-83
2022/06/13 06:12:58;;;;;;;22.50;21.03;;;;;;;;;;5035846;28;20444;-88
2022/06/13 06:15:25;;;;;;;21.43;20.23;;;;;;;;;;5018179;28;20430;-81
2022/06/13 06:17:52;;;;;;;22.30;20.90;;;;;;;;;;5035734;28;20419;-87
2022/06/13 06:20:21;;;;;;;22.70;21.03;;;;;;;;;;5035327;28;20492;-92
2022/06/13 06:22:50;;;;;;;22.87;21.37;;;;;;;;;;5019499;28;20460;-95
2022/06/13 06:25:17;;;;;;;23.17;21.43;;;;;;;;;;5036351;28;20907;-91
2022/06/13 06:27:45;;;;;;;22.30;20.90;;;;;;;;;;5018466;28;20502;-88
2022/06/13 06:30:15;;;;;;;22.80;21.00;;;;;;;;;;5036800;28;20411;-89
2022/06/13 06:32:42;;;;;;;22.90;21.23;;;;;;;;;;5036246;28;20450;-88
2022/06/13 06:35:10;;;;;;;21.70;20.20;;;;;;;;;;5036040;28;20929;-88
2022/06/13 06:37:39;;;;;;;21.30;20.10;;;;;;;;;;5036062;28;20434;-89
2022/06/13 06:40:09;;;;;;;22.40;21.07;;;;;;;;;;5036493;28;20462;-89
2022/06/13 06:42:37;;;;;;;21.97;20.37;;;;;;;;;;5018412;28;20448;-89
2022/06/13 06:45:04;;;;;;;22.13;20.70;;;;;;;;;;5018382;28;20476;-89
2022/06/13 06:47:32;;;;;;;21.50;20.30;;;;;;;;;;5036638;28;20876;-86
2022/06/13 06:50:00;;;;;;;22.00;20.70;;;;;;;;;;5035882;28;20465;-90
2022/06/13 06:52:27;;;;;;;22.40;20.63;;;;;;;;;;5034772;28;20506;-79
2022/06/13 07:00:25;;;;;;;23.17;21.50;;;;;;;;;;5035248;28;20584;-88
2022/06/13 07:02:53;;;;;;;22.63;21.23;;;;;;;;;;5035301;28;20426;-85
2022/06/13 07:05:20;;;;;;;23.60;21.77;;;;;;;;;;5034607;28;20810;-84
2022/06/13 07:07:48;;;;;;;22.50;21.00;;;;;;;;;;5035150;28;20435;-88
2022/06/13 07:10:15;;;;;;;22.77;21.30;;;;;;;;;;5035443;28;20493;-88
2022/06/13 07:12:45;;;;;;;23.07;21.40;;;;;;;;;;5035208;28;20411;-86
2022/06/13 07:15:14;;;;;;;22.77;21.27;;;;;;;;;;5035000;28;20444;-85
2022/06/13 07:17:41;;;;;;;22.67;21.17;;;;;;;;;;5035076;28;20454;-85
2022/06/13 07:20:09;;;;;;;22.80;21.30;;;;;;;;;;5034688;28;20478;-85
2022/06/13 07:22:36;;;;;;;21.50;20.20;;;;;;;;;;5035125;28;20407;-84
2022/06/13 07:25:04;;;;;;;23.13;21.40;;;;;;;;;;5017676;28;20418;-85
2022/06/13 07:27:31;;;;;;;24.17;22.20;;;;;;;;;;5034856;28;20456;-85
2022/06/13 07:30:00;;;;;;;22.83;21.23;;;;;;;;;;5034607;28;20479;-85
2022/06/13 07:32:27;;;;;;;22.77;21.13;;;;;;;;;;5034265;28;20980;-86
2022/06/13 07:34:55;;;;;;;22.90;21.40;;;;;;;;;;5034681;28;20434;-85
2022/06/13 07:40:09;;;;;;;22.23;20.93;;;;;;;;;;5034022;28;20536;-85
2022/06/13 07:42:38;;;;;;;22.83;21.53;;;;;;;;;;5017130;28;20476;-84
2022/06/13 07:45:08;;;;;;;22.17;20.77;;;;;;;;;;5034517;28;20870;-85
2022/06/13 07:47:35;;;;;;;22.50;21.07;;;;;;;;;;5034557;28;20806;-85
2022/06/13 07:50:02;;;;;;;23.00;21.40;;;;;;;;;;5034527;28;20444;-85
2022/06/13 07:52:31;;;;;;;23.23;21.27;;;;;;;;;;5034130;28;20438;-85
2022/06/13 07:54:58;;;;;;;24.90;23.07;;;;;;;;;;5034187;28;20421;-85
2022/06/13 07:57:25;;;;;;;23.73;22.13;;;;;;;;;;5034252;28;20419;-85
2022/06/13 07:59:53;;;;;;;23.60;21.57;;;;;;;;;;5034169;28;20495;-86
2022/06/13 08:02:22;;;;;;;24.70;22.90;;;;;;;;;;5034237;28;20469;-85
2022/06/13 08:04:49;;;;;;;24.50;22.43;;;;;;;;;;5034290;28;20417;-85
2022/06/13 08:07:16;;;;;;;23.50;21.73;;;;;;;;;;5034315;28;20407;-85
2022/06/13 08:09:44;;;;;;;24.43;22.83;;;;;;;;;;5034035;28;20529;-85
2022/06/13 08:12:12;;;;;;;24.20;22.50;;;;;;;;;;5034055;28;20529;-85
2022/06/13 08:14:45;;;;;;;24.17;22.37;;;;;;;;;;5033858;28;20447;-84
2022/06/13 08:17:12;;;;;;;23.20;21.40;;;;;;;;;;5034032;28;20483;-85
2022/06/13 08:19:41;;;;;;;23.50;21.70;;;;;;;;;;5033876;28;20443;-86
2022/06/13 08:22:09;;;;;;;24.53;22.73;;;;;;;;;;5028388;28;20415;-85
2022/06/13 08:24:36;;;;;;;23.40;21.60;;;;;;;;;;5014397;28;20423;-85
2022/06/13 08:27:04;;;;;;;24.80;22.90;;;;;;;;;;5014520;28;20778;-85
2022/06/13 08:29:31;;;;;;;23.87;22.13;;;;;;;;;;5014159;28;20954;-85
2022/06/13 08:31:59;;;;;;;24.13;22.43;;;;;;;;;;5013967;28;20462;-86
2022/06/13 08:34:27;;;;;;;24.03;22.10;;;;;;;;;;4996490;28;20431;-86
2022/06/13 08:36:56;;;;;;;25.53;23.37;;;;;;;;;;5014235;28;20419;-85
2022/06/13 08:39:24;;;;;;;23.80;22.13;;;;;;;;;;5013694;28;20825;-84
2022/06/13 08:41:55;;;;;;;24.10;22.20;;;;;;;;;;5013922;28;20982;-85
2022/06/13 08:44:37;;;;;;;24.30;22.70;;;;;;;;;;5014295;28;20446;-85
2022/06/13 08:47:08;;;;;;;23.43;21.87;;;;;;;;;;4996908;28;20476;-86
2022/06/13 08:49:38;;;;;;;23.50;22.00;;;;;;;;;;5014302;28;20443;-85
2022/06/13 08:52:12;;;;;;;24.00;22.20;;;;;;;;;;5017417;28;20423;-85
2022/06/13 08:54:41;;;;;;;24.53;22.83;;;;;;;;;;5017835;28;20407;-85
2022/06/13 08:57:10;;;;;;;23.40;21.80;;;;;;;;;;5017933;28;20511;-86
2022/06/13 08:59:40;;;;;;;23.60;22.07;;;;;;;;;;5018091;28;21090;-85
2022/06/13 09:02:10;;;;;;;24.50;22.87;;;;;;;;;;5017764;28;20443;-85
2022/06/13 09:04:40;;;;;;;24.90;23.30;;;;;;;;;;5017788;28;20893;-86
2022/06/13 09:07:11;;;;;;;26.40;24.40;;;;;;;;;;5017224;28;20420;-85
2022/06/13 09:09:43;;;;;;;25.10;23.40;;;;;;;;;;5017941;28;20416;-84
2022/06/13 09:12:13;;;;;;;24.07;22.37;;;;;;;;;;5017718;28;20468;-86
2022/06/13 09:14:43;;;;;;;24.87;22.70;;;;;;;;;;5017665;28;20458;-84
2022/06/13 09:17:14;;;;;;;24.47;22.77;;;;;;;;;;5000195;28;20424;-86
2022/06/13 09:19:45;;;;;;;23.40;21.90;;;;;;;;;;5017427;28;20433;-86
2022/06/13 09:22:18;;;;;;;23.70;22.00;;;;;;;;;;5017572;28;20488;-86
2022/06/13 09:24:52;;;;;;;25.00;23.10;;;;;;;;;;5000174;28;20803;-86
2022/06/13 09:27:22;;;;;;;24.50;22.80;;;;;;;;;;5017402;28;20416;-86
2022/06/13 09:29:53;;;;;;;24.60;22.60;;;;;;;;;;5017864;28;20439;-86
2022/06/13 09:32:21;;;;;;;24.33;22.73;;;;;;;;;;5017140;28;20665;-86
2022/06/13 09:34:50;;;;;;;24.27;22.43;;;;;;;;;;4999720;28;20499;-86
2022/06/13 09:37:23;;;;;;;24.33;22.60;;;;;;;;;;5017475;28;20441;-86
2022/06/13 09:39:51;;;;;;;24.40;22.70;;;;;;;;;;5017250;28;20494;-86
2022/06/13 09:42:35;;;;;;;24.77;22.63;;;;;;;;;;5016715;28;20521;-84
2022/06/13 09:45:07;;;;;;;24.10;22.60;;;;;;;;;;5013333;28;20768;-86
2022/06/13 09:47:38;;;;;;;24.13;22.40;;;;;;;;;;5017335;28;20424;-86
2022/06/13 09:50:17;;;;;;;25.43;23.70;;;;;;;;;;4999688;28;20455;-86
2022/06/13 09:52:49;;;;;;;25.00;22.70;;;;;;;;;;5016956;28;20412;-86
2022/06/13 09:55:21;;;;;;;23.93;22.10;;;;;;;;;;5016946;28;20423;-86
2022/06/13 09:57:55;;;;;;;25.10;23.03;;;;;;;;;;5017195;28;20544;-87
2022/06/13 10:00:25;;;;;;;24.60;22.80;;;;;;;;;;5017247;28;20515;-86
2022/06/13 10:02:58;;;;;;;25.03;23.33;;;;;;;;;;5016331;28;20480;-86
2022/06/13 10:05:34;;;;;;;24.70;22.80;;;;;;;;;;5017021;28;20973;-86
2022/06/13 10:08:07;;;;;;;25.20;23.10;;;;;;;;;;5016806;28;20420;-86
2022/06/13 10:10:40;;;;;;;23.90;22.30;;;;;;;;;;5016805;28;20443;-84
2022/06/13 10:13:16;;;;;;;23.57;21.97;;;;;;;;;;5016701;28;20441;-85
2022/06/13 10:15:49;;;;;;;24.03;22.13;;;;;;;;;;5016818;28;20754;-86
2022/06/13 10:18:23;;;;;;;24.47;22.77;;;;;;;;;;5016611;28;20449;-86
2022/06/13 10:20:54;;;;;;;22.70;21.20;;;;;;;;;;5016532;28;20864;-85
2022/06/13 10:23:31;;;;;;;28.10;26.37;;;;;;;;;;5016189;28;20466;-82
2022/06/13 10:26:03;;;;;;;34.40;32.03;;;;;;;;;;5015879;28;20795;-83
2022/06/13 10:28:44;;;;;;;33.30;30.80;;;;;;;;;;4999142;28;20445;-84
2022/06/13 10:31:15;;;;;;;34.43;31.93;;;;;;;;;;5015639;28;20441;-84
2022/06/13 10:33:51;;;;;;;28.97;27.07;;;;;;;;;;5016377;28;20466;-84
2022/06/13 10:36:20;;;;;;;28.87;27.00;;;;;;;;;;5016034;28;20427;-84
2022/06/13 10:38:57;;;;;;;28.60;26.70;;;;;;;;;;5015894;28;20464;-85
2022/06/13 10:41:25;;;;;;;26.57;24.63;;;;;;;;;;4998694;28;20490;-85
2022/06/13 10:43:52;;;;;;;24.17;22.53;;;;;;;;;;5015981;28;20743;-85
2022/06/13 10:46:20;;;;;;;24.90;23.20;;;;;;;;;;5015736;28;20453;-86
2022/06/13 10:48:50;;;;;;;25.33;23.47;;;;;;;;;;5015977;28;20457;-85
2022/06/13 10:51:18;;;;;;;23.10;21.80;;;;;;;;;;5015982;28;20437;-85
2022/06/13 10:53:49;;;;;;;22.00;20.70;;;;;;;;;;5015950;28;20445;-86
2022/06/13 10:56:19;;;;;;;23.57;22.07;;;;;;;;;;5015620;28;20452;-85
2022/06/13 10:58:48;;;;;;;24.40;22.90;;;;;;;;;;5015712;28;20461;-84
2022/06/13 11:01:17;;;;;;;22.20;20.80;;;;;;;;;;5015691;28;20455;-86
2022/06/13 11:03:46;;;;;;;23.00;21.60;;;;;;;;;;5015805;28;20499;-85
2022/06/13 11:06:19;;;;;;;23.07;21.20;;;;;;;;;;4997930;28;20423;-86
2022/06/13 11:08:47;;;;;;;21.53;20.33;;;;;;;;;;5015214;28;20534;-85
2022/06/13 11:11:15;;;;;;;22.90;21.60;;;;;;;;;;4997823;28;20428;-86
2022/06/13 11:13:44;;;;;;;22.57;21.20;;;;;;;;;;5014748;28;20736;-85
2022/06/13 11:24:48;;;;;;;23.30;21.87;;;;;;;;;;5009769;28;20422;-85
2022/06/13 11:30:23;;;;;;;23.37;21.93;;;;;;;;;;5015007;28;20486;-85
2022/06/13 11:32:59;;;;;;;23.00;21.70;;;;;;;;;;5014949;28;20456;-85
2022/06/13 11:35:30;;;;;;;23.93;22.37;;;;;;;;;;5014619;28;20886;-85
2022/06/13 11:38:10;;;;;;;22.77;21.47;;;;;;;;;;4993883;28;20531;-84
2022/06/13 11:40:38;;;;;;;22.90;21.60;;;;;;;;;;4995377;28;20465;-85
2022/06/13 11:43:05;;;;;;;23.47;22.17;;;;;;;;;;4995321;28;20425;-85
2022/06/13 11:45:33;;;;;;;22.33;21.03;;;;;;;;;;4995028;28;20428;-85
2022/06/13 11:48:01;;;;;;;23.57;21.90;;;;;;;;;;4995108;28;20458;-85
2022/06/13 11:50:33;;;;;;;22.10;20.80;;;;;;;;;;4994930;28;20465;-85
2022/06/13 11:55:51;;;;;;;23.30;21.80;;;;;;;;;;4995105;28;20433;-85
2022/06/13 11:58:20;;;;;;;22.50;21.10;;;;;;;;;;4993762;28;20851;-84
2022/06/13 12:00:52;;;;;;;22.93;21.60;;;;;;;;;;4994752;28;20424;-85
2022/06/13 12:03:23;;;;;;;21.97;20.67;;;;;;;;;;4995010;28;20442;-86
2022/06/13 12:05:52;;;;;;;22.50;21.20;;;;;;;;;;4995233;28;20456;-85
2022/06/13 12:08:21;;;;;;;22.83;21.53;;;;;;;;;;4994266;28;20914;-84
2022/06/13 12:10:57;;;;;;;23.80;22.40;;;;;;;;;;4994759;28;20432;-85
2022/06/13 12:13:26;;;;;;;23.43;22.03;;;;;;;;;;4995039;28;20770;-85
2022/06/13 12:15:55;;;;;;;22.13;20.93;;;;;;;;;;4995294;28;20450;-85
2022/06/13 12:18:28;;;;;;;22.70;21.40;;;;;;;;;;4995284;28;20423;-85
2022/06/13 12:20:58;;;;;;;22.90;21.50;;;;;;;;;;4995304;28;20429;-86
2022/06/13 12:23:30;;;;;;;22.17;20.97;;;;;;;;;;4995180;28;20417;-85
2022/06/13 12:26:01;;;;;;;22.83;21.30;;;;;;;;;;4994371;28;20416;-85
2022/06/13 12:28:32;;;;;;;22.07;20.87;;;;;;;;;;4994784;28;20438;-85
2022/06/13 12:31:01;;;;;;;23.07;21.67;;;;;;;;;;4994393;28;20434;-84
2022/06/13 12:33:34;;;;;;;22.27;20.90;;;;;;;;;;4994431;28;20409;-85
2022/06/13 12:36:25;;;;;;;22.90;21.60;;;;;;;;;;4994797;28;20438;-85
2022/06/13 12:39:09;;;;;;;22.83;21.23;;;;;;;;;;5005574;28;20492;-85
2022/06/13 12:41:42;;;;;;;22.70;21.40;;;;;;;;;;5010171;28;20972;-85
2022/06/13 12:44:24;;;;;;;22.80;21.40;;;;;;;;;;5014227;28;20415;-85
2022/06/13 12:46:56;;;;;;;22.47;21.17;;;;;;;;;;4996603;28;20849;-85
2022/06/13 12:49:44;;;;;;;22.30;21.00;;;;;;;;;;5013918;28;20473;-85
2022/06/13 12:52:22;;;;;;;23.00;21.60;;;;;;;;;;5014175;28;20477;-87
2022/06/13 12:54:52;;;;;;;22.47;21.07;;;;;;;;;;5014428;28;20431;-87
2022/06/13 12:57:25;;;;;;;22.70;21.40;;;;;;;;;;5014433;28;20921;-87
2022/06/13 12:59:58;;;;;;;23.67;22.07;;;;;;;;;;5013915;28;20408;-87
2022/06/13 13:02:32;;;;;;;23.90;22.30;;;;;;;;;;5014232;28;20492;-87
2022/06/13 13:05:03;;;;;;;23.20;21.80;;;;;;;;;;5013918;28;20431;-87
2022/06/13 13:07:35;;;;;;;23.27;21.77;;;;;;;;;;5013946;28;20542;-87
2022/06/13 13:10:21;;;;;;;23.93;22.40;;;;;;;;;;5014132;28;20456;-87
2022/06/13 13:12:58;;;;;;;22.60;21.20;;;;;;;;;;4996533;28;20456;-87
2022/06/13 13:15:29;;;;;;;23.33;22.03;;;;;;;;;;5014150;28;20510;-88
2022/06/13 13:18:01;;;;;;;24.60;23.20;;;;;;;;;;4997267;28;20452;-87
2022/06/13 13:20:33;;;;;;;23.07;21.67;;;;;;;;;;5014374;28;20415;-88
2022/06/13 13:23:05;;;;;;;23.27;21.87;;;;;;;;;;5014241;28;20856;-87
2022/06/13 13:25:36;;;;;;;23.93;22.43;;;;;;;;;;4996630;28;20428;-87
2022/06/13 13:28:10;;;;;;;23.60;22.10;;;;;;;;;;5014281;28;20495;-87
2022/06/13 13:30:40;;;;;;;22.53;21.33;;;;;;;;;;5014158;28;20882;-88
2022/06/13 13:33:17;;;;;;;22.70;21.50;;;;;;;;;;5013724;28;20475;-86
2022/06/13 13:35:46;;;;;;;22.43;21.03;;;;;;;;;;4996307;28;20473;-87
2022/06/13 13:38:17;;;;;;;22.93;21.73;;;;;;;;;;5014839;28;20474;-86
2022/06/13 13:40:48;;;;;;;23.17;21.77;;;;;;;;;;5017027;28;20445;-87
2022/06/13 13:43:21;;;;;;;23.10;21.80;;;;;;;;;;5017160;28;20515;-87
2022/06/13 13:45:50;;;;;;;23.47;22.17;;;;;;;;;;5000102;28;20445;-84
2022/06/13 13:48:23;;;;;;;22.67;21.37;;;;;;;;;;5017489;28;20445;-85
2022/06/13 13:50:53;;;;;;;23.73;22.33;;;;;;;;;;5017270;28;20448;-85
2022/06/13 13:53:24;;;;;;;23.17;21.77;;;;;;;;;;5016936;28;20435;-84
2022/06/13 13:55:53;;;;;;;22.57;21.27;;;;;;;;;;5016828;28;20404;-83
2022/06/13 13:58:25;;;;;;;22.13;20.80;;;;;;;;;;5017066;28;20460;-84
2022/06/13 14:00:55;;;;;;;22.90;21.60;;;;;;;;;;5000131;28;20412;-84
2022/06/13 14:03:27;;;;;;;24.27;22.87;;;;;;;;;;5016480;28;20473;-84
2022/06/13 14:05:56;;;;;;;23.97;22.67;;;;;;;;;;5016852;28;20881;-85
2022/06/13 14:08:26;;;;;;;23.17;21.87;;;;;;;;;;5017254;28;20461;-84
2022/06/13 14:10:55;;;;;;;22.63;21.23;;;;;;;;;;5016712;28;20476;-85
2022/06/13 14:13:25;;;;;;;23.00;21.60;;;;;;;;;;5017194;28;20510;-84
2022/06/13 14:16:03;;;;;;;22.50;21.10;;;;;;;;;;5016328;28;20460;-84
2022/06/13 14:18:36;;;;;;;22.60;21.30;;;;;;;;;;5016310;28;20446;-85
2022/06/13 14:21:06;;;;;;;22.70;21.40;;;;;;;;;;5016421;28;20823;-85
2022/06/13 14:23:37;;;;;;;22.37;21.17;;;;;;;;;;5016315;28;20811;-84
2022/06/13 14:26:04;;;;;;;23.23;21.93;;;;;;;;;;5016285;28;20457;-85
2022/06/13 14:28:46;;;;;;;23.40;22.00;;;;;;;;;;5016359;28;20416;-84
2022/06/13 14:31:13;;;;;;;23.30;21.70;;;;;;;;;;5016335;28;20518;-84
2022/06/13 14:37:08;;;;;;;23.27;21.90;;;;;;;;;;5016075;28;20784;-84
2022/06/13 14:39:39;;;;;;;23.93;22.60;;;;;;;;;;4996518;28;20583;-84
2022/06/13 14:42:09;;;;;;;23.13;21.80;;;;;;;;;;5015891;28;20462;-84
2022/06/13 14:44:41;;;;;;;22.50;21.30;;;;;;;;;;5015732;28;20431;-84
2022/06/13 14:47:11;;;;;;;23.80;22.40;;;;;;;;;;5016009;28;20454;-85
2022/06/13 14:49:44;;;;;;;23.53;22.23;;;;;;;;;;5016201;28;20435;-84
2022/06/13 14:52:14;;;;;;;22.47;21.17;;;;;;;;;;5015796;28;20820;-84
2022/06/13 14:54:49;;;;;;;24.10;22.70;;;;;;;;;;5015710;28;20424;-85
2022/06/13 14:57:43;;;;;;;22.90;21.60;;;;;;;;;;5015606;28;20407;-83
2022/06/13 15:00:13;;;;;;;23.93;22.40;;;;;;;;;;5015816;28;20523;-84
2022/06/13 15:02:56;;;;;;;22.77;21.37;;;;;;;;;;5015390;28;20506;-85
2022/06/13 15:05:41;;;;;;;23.50;22.10;;;;;;;;;;5015512;28;20641;-84
2022/06/13 15:08:12;;;;;;;23.33;22.03;;;;;;;;;;5015417;28;20428;-84